createdAt,value
2019-02-06T00:01:49.437Z,28.40
2019-02-06T00:04:19.242Z,30.00
2019-02-06T00:06:48.839Z,30.23
2019-02-06T00:09:18.242Z,32.97
2019-02-06T00:11:47.729Z,25.80
2019-02-06T00:14:17.649Z,28.27
2019-02-06T00:16:47.150Z,26.53
2019-02-06T00:19:34.102Z,35.20
2019-02-06T00:22:03.647Z,26.83
2019-02-06T00:24:35.934Z,26.90
2019-02-06T00:27:05.750Z,29.07
2019-02-06T00:29:35.391Z,36.63
2019-02-06T00:32:06.303Z,26.70
2019-02-06T00:34:35.848Z,23.90
2019-02-06T00:37:05.334Z,29.03
2019-02-06T00:39:36.724Z,28.20
2019-02-06T00:42:06.200Z,35.57
2019-02-06T00:50:14.708Z,30.63
2019-02-06T00:52:44.526Z,24.60
2019-02-06T00:55:14.105Z,34.77
2019-02-06T00:57:46.390Z,27.63
2019-02-06T01:00:20.915Z,28.03
2019-02-06T01:02:51.447Z,25.53
2019-02-06T01:05:21.506Z,24.53
2019-02-06T01:07:53.973Z,24.77
2019-02-06T01:10:23.555Z,25.93
2019-02-06T01:12:53.102Z,25.70
2019-02-06T01:15:22.629Z,28.60
2019-02-06T01:17:52.251Z,25.00
2019-02-06T01:20:23.026Z,27.57
2019-02-06T01:22:52.567Z,29.53
2019-02-06T01:25:25.221Z,31.53
2019-02-06T01:27:56.183Z,28.77
2019-02-06T01:30:26.700Z,26.53
2019-02-06T01:32:56.915Z,31.03
2019-02-06T01:35:29.753Z,29.93
2019-02-06T01:37:59.402Z,25.40
2019-02-06T01:40:29.994Z,24.77
2019-02-06T01:42:59.539Z,28.67
2019-02-06T01:45:29.010Z,20.27
2019-02-06T01:48:01.024Z,19.32
2019-02-06T01:50:33.069Z,20.92
2019-02-06T01:53:18.114Z,20.77
2019-02-06T01:55:47.762Z,21.27
2019-02-06T01:58:17.665Z,18.25
2019-02-06T02:00:47.161Z,20.63
2019-02-06T02:03:18.168Z,23.80
2019-02-06T02:06:01.067Z,23.02
2019-02-06T02:08:19.257Z,22.80
2019-02-06T02:10:54.821Z,22.58
2019-02-06T02:13:24.484Z,22.98
2019-02-06T02:15:53.926Z,23.45
2019-02-06T02:18:23.613Z,22.22
2019-02-06T02:20:53.118Z,22.15
2019-02-06T02:23:22.849Z,21.00
2019-02-06T02:26:24.519Z,22.83
2019-02-06T02:28:54.019Z,23.12
2019-02-06T02:31:24.040Z,19.55
2019-02-06T02:33:53.535Z,21.48
2019-02-06T02:36:38.749Z,21.10
2019-02-06T02:39:07.946Z,20.20
2019-02-06T02:41:39.674Z,22.00
2019-02-06T02:44:11.830Z,18.97
2019-02-06T02:46:46.893Z,21.37
2019-02-06T02:49:16.417Z,17.70
2019-02-06T02:51:46.231Z,19.90
2019-02-06T02:54:16.013Z,18.60
2019-02-06T02:56:45.555Z,17.90
2019-02-06T02:59:15.588Z,18.10
2019-02-06T03:02:19.335Z,19.35
2019-02-06T03:07:53.710Z,21.25
2019-02-06T03:10:23.576Z,20.08
2019-02-06T03:12:55.929Z,17.85
2019-02-06T03:15:25.802Z,18.42
2019-02-06T03:17:55.298Z,19.30
2019-02-06T03:20:25.278Z,22.93
2019-02-06T03:22:54.843Z,20.60
2019-02-06T03:25:24.637Z,21.90
2019-02-06T03:27:54.222Z,22.10
2019-02-06T03:30:24.228Z,20.43
2019-02-06T03:32:56.076Z,20.35
2019-02-06T03:35:38.831Z,21.45
2019-02-06T03:38:09.211Z,18.50
2019-02-06T03:40:39.613Z,18.23
2019-02-06T03:43:09.233Z,20.88
2019-02-06T03:45:38.785Z,20.02
2019-02-06T03:48:54.483Z,19.07
2019-02-06T03:51:32.330Z,21.23
2019-02-06T03:54:02.183Z,20.08
2019-02-06T03:56:31.572Z,21.75
2019-02-06T03:59:01.179Z,22.05
2019-02-06T04:01:30.923Z,24.85
2019-02-06T04:04:00.760Z,23.83
2019-02-06T04:06:30.246Z,20.45
2019-02-06T04:08:59.939Z,21.85
2019-02-06T04:11:29.540Z,19.45
2019-02-06T04:13:59.084Z,20.30
2019-02-06T04:16:28.992Z,20.05
2019-02-06T04:22:26.384Z,21.00
2019-02-06T04:25:06.323Z,19.57
2019-02-06T04:27:27.569Z,20.05
2019-02-06T04:29:58.722Z,18.48
2019-02-06T04:32:31.243Z,19.73
2019-02-06T04:35:00.760Z,19.23
2019-02-06T04:37:30.290Z,19.07
2019-02-06T04:39:59.934Z,19.30
2019-02-06T04:42:31.285Z,19.62
2019-02-06T04:45:00.641Z,22.87
2019-02-06T04:47:32.627Z,18.90
2019-02-06T04:50:11.445Z,20.80
2019-02-06T04:52:44.793Z,32.63
2019-02-06T04:55:15.262Z,42.00
2019-02-06T04:57:45.006Z,19.55
2019-02-06T05:00:20.286Z,70.32
2019-02-06T05:02:50.099Z,18.85
2019-02-06T05:05:19.525Z,21.95
2019-02-06T05:07:50.735Z,18.95
2019-02-06T05:10:21.816Z,18.57
2019-02-06T05:13:25.900Z,17.57
2019-02-06T05:15:55.715Z,15.93
2019-02-06T05:18:25.582Z,17.35
2019-02-06T05:20:55.615Z,18.40
2019-02-06T05:23:25.131Z,17.57
2019-02-06T05:25:55.058Z,15.72
2019-02-06T05:28:24.611Z,16.23
2019-02-06T05:30:54.062Z,16.52
2019-02-06T05:33:23.642Z,15.15
2019-02-06T05:35:53.557Z,16.00
2019-02-06T05:38:23.252Z,16.37
2019-02-06T05:40:55.428Z,16.67
2019-02-06T05:43:24.869Z,16.57
2019-02-06T05:45:54.572Z,16.57
2019-02-06T05:48:24.089Z,16.05
2019-02-06T05:50:53.778Z,17.12
2019-02-06T05:53:23.027Z,17.98
2019-02-06T05:55:52.429Z,16.32
2019-02-06T05:58:21.927Z,17.55
2019-02-06T06:00:51.655Z,16.30
2019-02-06T06:03:20.936Z,16.97
2019-02-06T06:05:50.751Z,16.65
2019-02-06T06:08:20.125Z,15.23
2019-02-06T06:10:49.601Z,17.07
2019-02-06T06:13:18.999Z,17.07
2019-02-06T06:15:48.539Z,16.80
2019-02-06T06:18:17.773Z,17.37
2019-02-06T06:20:47.074Z,18.00
2019-02-06T06:23:16.525Z,17.60
2019-02-06T06:25:45.733Z,17.82
2019-02-06T06:28:15.005Z,17.95
2019-02-06T06:30:47.222Z,17.65
2019-02-06T06:33:15.169Z,15.63
2019-02-06T06:35:44.616Z,17.30
2019-02-06T06:38:14.076Z,15.38
2019-02-06T06:40:43.384Z,15.53
2019-02-06T06:43:16.015Z,15.72
2019-02-06T06:45:43.595Z,14.83
2019-02-06T06:48:12.878Z,13.48
2019-02-06T06:50:42.117Z,14.80
2019-02-06T06:53:11.383Z,15.32
2019-02-06T06:55:40.702Z,14.07
2019-02-06T06:58:10.082Z,13.13
2019-02-06T07:00:39.305Z,13.85
2019-02-06T07:03:08.549Z,14.80
2019-02-06T07:05:37.748Z,18.23
2019-02-06T07:08:10.102Z,18.87
2019-02-06T07:10:38.164Z,18.80
2019-02-06T07:13:07.420Z,20.37
2019-02-06T07:15:36.736Z,23.05
2019-02-06T07:18:06.002Z,25.45
2019-02-06T07:20:35.277Z,37.55
2019-02-06T07:23:04.860Z,56.95
2019-02-06T07:25:34.141Z,52.40
2019-02-06T07:28:03.485Z,23.73
2019-02-06T07:30:34.415Z,22.37
2019-02-06T07:33:03.693Z,19.27
2019-02-06T07:35:32.937Z,21.97
2019-02-06T07:38:02.356Z,23.00
2019-02-06T07:40:31.657Z,23.85
2019-02-06T07:43:00.994Z,26.20
2019-02-06T07:45:30.323Z,26.52
2019-02-06T07:47:59.655Z,25.33
2019-02-06T07:50:33.004Z,25.10
2019-02-06T07:53:02.361Z,24.00
2019-02-06T07:55:31.723Z,21.10
2019-02-06T07:58:01.137Z,21.77
2019-02-06T08:00:30.292Z,25.23
2019-02-06T08:02:59.842Z,18.90
2019-02-06T08:05:29.089Z,19.33
2019-02-06T08:07:58.681Z,19.43
2019-02-06T08:10:36.984Z,20.93
2019-02-06T08:13:06.461Z,22.67
2019-02-06T08:15:35.785Z,21.87
2019-02-06T08:18:05.444Z,21.20
2019-02-06T08:20:35.109Z,21.20
2019-02-06T08:23:04.359Z,21.20
2019-02-06T08:25:33.549Z,21.47
2019-02-06T08:28:02.810Z,24.30
2019-02-06T08:30:34.392Z,29.60
2019-02-06T08:33:03.615Z,22.37
2019-02-06T08:35:33.267Z,21.70
2019-02-06T08:38:02.453Z,22.13
2019-02-06T08:40:31.668Z,33.63
2019-02-06T08:43:00.988Z,35.37
2019-02-06T08:45:31.140Z,22.93
2019-02-06T08:48:01.499Z,22.23
2019-02-06T08:50:31.034Z,22.53
2019-02-06T08:53:00.252Z,22.60
2019-02-06T08:55:30.603Z,23.20
2019-02-06T08:57:59.917Z,23.20
2019-02-06T09:00:31.481Z,22.87
2019-02-06T09:03:02.085Z,23.67
2019-02-06T09:05:31.777Z,21.77
2019-02-06T09:08:01.124Z,24.33
2019-02-06T09:10:30.331Z,25.47
2019-02-06T09:12:59.691Z,23.40
2019-02-06T09:15:28.937Z,25.57
2019-02-06T09:17:58.133Z,26.37
2019-02-06T09:20:27.772Z,24.67
2019-02-06T09:22:57.001Z,25.47
2019-02-06T09:25:26.232Z,25.90
2019-02-06T09:27:55.440Z,24.90
2019-02-06T09:30:26.407Z,21.57
2019-02-06T09:32:55.990Z,22.37
2019-02-06T09:35:25.502Z,20.30
2019-02-06T09:37:54.705Z,19.60
2019-02-06T09:40:25.852Z,18.20
2019-02-06T09:42:55.053Z,17.17
2019-02-06T09:45:24.244Z,18.63
2019-02-06T09:47:53.474Z,17.47
2019-02-06T09:50:34.072Z,18.60
2019-02-06T09:53:03.378Z,19.40
2019-02-06T09:55:32.630Z,24.67
2019-02-06T09:58:01.865Z,22.87
2019-02-06T10:00:33.264Z,19.37
2019-02-06T10:03:02.786Z,18.50
2019-02-06T10:05:31.981Z,21.70
2019-02-06T10:08:02.736Z,17.83
2019-02-06T10:10:31.846Z,17.00
2019-02-06T10:13:01.044Z,16.23
2019-02-06T10:15:32.455Z,18.70
2019-02-06T10:18:02.445Z,18.80
2019-02-06T10:20:40.090Z,16.33
2019-02-06T10:23:09.289Z,19.27
2019-02-06T10:25:38.467Z,17.27
2019-02-06T10:28:07.691Z,16.63
2019-02-06T10:30:50.773Z,20.37
2019-02-06T10:33:20.341Z,15.77
2019-02-06T10:35:52.109Z,13.80
2019-02-06T10:38:20.369Z,14.77
2019-02-06T10:40:49.598Z,13.40
2019-02-06T10:43:31.228Z,14.83
2019-02-06T10:45:50.042Z,49.57
2019-02-06T10:48:19.320Z,28.07
2019-02-06T10:50:50.783Z,14.00
2019-02-06T10:53:19.979Z,13.57
2019-02-06T10:55:49.247Z,12.77
2019-02-06T10:58:18.961Z,13.37
2019-02-06T11:00:50.573Z,14.27
2019-02-06T11:03:26.245Z,14.23
2019-02-06T11:05:55.684Z,14.83
2019-02-06T11:08:25.084Z,12.70
2019-02-06T11:10:54.478Z,14.03
2019-02-06T11:13:23.819Z,15.07
2019-02-06T11:15:53.000Z,13.97
2019-02-06T11:18:22.200Z,12.60
2019-02-06T11:20:51.471Z,13.20
2019-02-06T11:23:20.676Z,70.40
2019-02-06T11:25:49.887Z,16.70
2019-02-06T11:28:19.041Z,15.47
2019-02-06T11:30:48.247Z,15.13
2019-02-06T11:33:17.444Z,15.87
2019-02-06T11:35:46.684Z,16.73
2019-02-06T11:38:15.876Z,17.07
2019-02-06T11:40:45.093Z,16.23
2019-02-06T11:43:14.352Z,15.70
2019-02-06T11:45:43.561Z,18.53
2019-02-06T11:48:12.785Z,17.07
2019-02-06T11:50:43.381Z,18.63
2019-02-06T11:53:26.433Z,18.13
2019-02-06T11:55:55.545Z,17.77
2019-02-06T11:58:24.897Z,18.13
2019-02-06T12:01:11.751Z,16.43
2019-02-06T12:03:40.923Z,16.13
2019-02-06T12:06:10.548Z,18.93
2019-02-06T12:08:39.874Z,18.27
2019-02-06T12:11:09.089Z,16.23
2019-02-06T12:13:38.313Z,15.43
2019-02-06T12:16:07.522Z,16.73
2019-02-06T12:18:36.701Z,18.40
2019-02-06T12:21:05.963Z,15.23
2019-02-06T12:23:35.264Z,16.73
2019-02-06T12:26:04.575Z,16.17
2019-02-06T12:28:33.764Z,15.63
2019-02-06T12:31:02.862Z,16.10
2019-02-06T12:33:32.093Z,15.37
2019-02-06T12:36:01.359Z,15.87
2019-02-06T12:38:30.985Z,14.73
2019-02-06T12:41:00.193Z,14.10
2019-02-06T12:43:29.407Z,14.53
2019-02-06T12:45:58.620Z,16.37
2019-02-06T12:48:27.930Z,14.63
2019-02-06T12:50:57.151Z,14.53
2019-02-06T12:53:26.398Z,15.77
2019-02-06T12:55:57.350Z,15.60
2019-02-06T12:58:26.737Z,15.07
2019-02-06T13:00:55.940Z,16.73
2019-02-06T13:03:25.186Z,16.63
2019-02-06T13:05:54.385Z,16.50
2019-02-06T13:08:23.689Z,15.20
2019-02-06T13:10:52.901Z,16.23
2019-02-06T13:13:22.287Z,15.30
2019-02-06T13:15:51.568Z,16.17
2019-02-06T13:18:24.031Z,17.60
2019-02-06T13:20:51.845Z,16.90
2019-02-06T13:23:21.103Z,15.27
2019-02-06T13:25:51.670Z,16.83
2019-02-06T13:28:21.044Z,16.43
2019-02-06T13:30:50.297Z,17.67
2019-02-06T13:33:19.668Z,16.83
2019-02-06T13:35:48.992Z,17.13
2019-02-06T13:38:18.167Z,16.43
2019-02-06T13:40:49.055Z,15.97
2019-02-06T13:43:18.389Z,16.13
2019-02-06T13:45:48.659Z,15.40
2019-02-06T13:48:17.899Z,14.67
2019-02-06T13:50:47.126Z,15.00
2019-02-06T13:53:16.783Z,14.27
2019-02-06T13:55:46.015Z,15.43
2019-02-06T13:58:20.219Z,13.77
2019-02-06T14:00:46.117Z,13.13
2019-02-06T14:03:15.477Z,11.57
2019-02-06T14:05:46.729Z,12.07
2019-02-06T14:08:17.069Z,12.27
2019-02-06T14:10:58.278Z,12.90
2019-02-06T14:13:17.434Z,12.47
2019-02-06T14:15:50.604Z,14.27
2019-02-06T14:18:19.133Z,13.13
2019-02-06T14:20:53.492Z,14.53
2019-02-06T14:23:48.656Z,12.23
2019-02-06T14:26:29.043Z,14.30
2019-02-06T14:29:57.520Z,14.30
2019-02-06T14:33:22.385Z,42.77
2019-02-06T14:36:21.188Z,13.37
2019-02-06T14:39:09.392Z,15.37
2019-02-06T14:42:16.673Z,13.30
2019-02-06T14:45:32.491Z,14.13
2019-02-06T14:49:01.328Z,14.93
2019-02-06T14:52:07.853Z,14.83
2019-02-06T14:55:04.082Z,14.47
2019-02-06T14:58:03.086Z,15.90
2019-02-06T15:00:45.573Z,16.53
2019-02-06T15:03:39.420Z,16.40
2019-02-06T15:06:49.499Z,32.03
2019-02-06T15:09:54.782Z,14.50
2019-02-06T15:13:04.974Z,14.73
2019-02-06T15:16:11.780Z,14.93
2019-02-06T15:19:17.973Z,14.43
2019-02-06T15:22:20.538Z,15.63
2019-02-06T15:25:22.287Z,15.27
2019-02-06T15:28:16.368Z,15.50
2019-02-06T15:31:20.876Z,17.87
2019-02-06T15:34:27.329Z,16.67
2019-02-06T15:37:49.264Z,15.13
2019-02-06T15:40:53.876Z,15.70
2019-02-06T15:43:39.104Z,17.00
2019-02-06T15:46:29.184Z,16.30
2019-02-06T15:49:48.549Z,16.37
2019-02-06T15:53:04.033Z,16.43
2019-02-06T15:55:59.724Z,18.30
2019-02-06T15:59:13.488Z,17.50
2019-02-06T16:02:00.598Z,13.90
2019-02-06T16:05:33.643Z,14.60
2019-02-06T16:08:59.160Z,15.60
2019-02-06T16:11:46.673Z,15.23
2019-02-06T16:15:05.187Z,17.67
2019-02-06T16:18:04.225Z,14.83
2019-02-06T16:21:03.248Z,18.83
2019-02-06T16:24:19.411Z,19.33
2019-02-06T16:27:03.898Z,20.00
2019-02-06T16:30:00.607Z,22.43
2019-02-06T16:33:14.120Z,26.43
2019-02-06T16:36:06.092Z,42.63
2019-02-06T16:39:07.351Z,37.00
2019-02-06T16:42:03.172Z,32.03
2019-02-06T16:44:54.854Z,28.07
2019-02-06T16:47:45.659Z,27.40
2019-02-06T16:50:44.673Z,28.70
2019-02-06T16:53:52.248Z,28.63
2019-02-06T16:56:57.561Z,28.63
2019-02-06T16:59:52.758Z,28.93
2019-02-06T17:02:57.880Z,29.40
2019-02-06T17:05:36.000Z,30.27
2019-02-06T17:08:33.735Z,29.07
2019-02-06T17:11:40.504Z,31.83
2019-02-06T17:14:45.093Z,30.37
2019-02-06T17:17:27.024Z,29.43
2019-02-06T17:20:26.841Z,30.00
2019-02-06T17:23:25.321Z,29.03
2019-02-06T17:26:35.917Z,72.80
2019-02-06T17:29:31.329Z,30.17
2019-02-06T17:32:46.171Z,28.67
2019-02-06T17:35:22.667Z,25.57
2019-02-06T17:38:35.551Z,29.47
2019-02-06T17:41:29.365Z,27.70
2019-02-06T17:44:58.117Z,28.43
2019-02-06T17:47:52.411Z,27.53
2019-02-06T17:50:53.509Z,31.48
2019-02-06T17:53:37.962Z,29.80
2019-02-06T17:56:07.164Z,30.53
2019-02-06T17:58:42.716Z,30.10
2019-02-06T18:01:48.037Z,30.80
2019-02-06T18:04:26.068Z,28.90
2019-02-06T18:06:55.561Z,29.83
2019-02-06T18:09:24.811Z,29.20
2019-02-06T18:11:53.981Z,32.90
2019-02-06T18:14:23.213Z,32.70
2019-02-06T18:16:52.460Z,32.07
2019-02-06T18:19:21.653Z,32.50
2019-02-06T18:21:51.313Z,33.20
2019-02-06T18:24:20.472Z,30.27
2019-02-06T18:26:49.941Z,31.27
2019-02-06T18:29:19.131Z,34.93
2019-02-06T18:31:48.359Z,33.73
2019-02-06T18:34:17.756Z,32.70
2019-02-06T18:36:47.088Z,33.40
2019-02-06T18:39:16.950Z,30.50
2019-02-06T18:41:46.163Z,35.30
2019-02-06T18:44:15.366Z,35.37
2019-02-06T18:46:46.672Z,63.77
2019-02-06T18:49:15.871Z,77.43
2019-02-06T18:51:45.128Z,59.57
2019-02-06T18:54:14.308Z,35.13
2019-02-06T18:56:43.895Z,39.93
2019-02-06T18:59:13.120Z,42.40
2019-02-06T19:01:42.399Z,33.07
2019-02-06T19:04:15.004Z,36.97
2019-02-06T19:06:44.332Z,41.30
2019-02-06T19:09:15.412Z,34.07
2019-02-06T19:11:44.632Z,42.43
2019-02-06T19:14:13.836Z,42.40
2019-02-06T19:16:43.082Z,39.13
2019-02-06T19:19:12.353Z,39.90
2019-02-06T19:21:41.587Z,43.53
2019-02-06T19:24:10.796Z,37.80
2019-02-06T19:26:40.179Z,36.07
2019-02-06T19:29:09.628Z,40.30
2019-02-06T19:31:38.864Z,37.17
2019-02-06T19:34:08.081Z,41.03
2019-02-06T19:36:37.407Z,38.70
2019-02-06T19:39:08.982Z,37.40
2019-02-06T19:41:38.375Z,35.83
2019-02-06T19:44:07.660Z,44.83
2019-02-06T19:46:36.869Z,33.30
2019-02-06T19:49:06.593Z,36.37
2019-02-06T19:51:36.081Z,35.53
2019-02-06T19:54:05.556Z,41.93
2019-02-06T19:56:35.004Z,46.33
2019-02-06T19:59:04.356Z,39.47
2019-02-06T20:01:33.630Z,42.23
2019-02-06T20:04:03.093Z,41.03
2019-02-06T20:06:33.095Z,40.03
2019-02-06T20:09:07.703Z,39.03
2019-02-06T20:11:36.932Z,39.50
2019-02-06T20:14:06.152Z,43.00
2019-02-06T20:16:36.470Z,41.20
2019-02-06T20:19:05.833Z,43.07
2019-02-06T20:21:35.120Z,39.10
2019-02-06T20:24:05.174Z,39.30
2019-02-06T20:26:34.396Z,34.33
2019-02-06T20:29:04.040Z,45.90
2019-02-06T20:31:33.500Z,68.13
2019-02-06T20:34:02.836Z,45.50
2019-02-06T20:36:32.041Z,35.27
2019-02-06T20:39:01.283Z,39.10
2019-02-06T20:41:30.550Z,39.80
2019-02-06T20:43:59.777Z,47.20
2019-02-06T20:46:29.081Z,45.00
2019-02-06T20:48:58.300Z,46.20
2019-02-06T20:51:27.720Z,40.67
2019-02-06T20:53:57.003Z,39.67
2019-02-06T20:56:26.276Z,38.60
2019-02-06T20:58:55.537Z,43.63
2019-02-06T21:01:24.734Z,43.10
2019-02-06T21:03:53.975Z,42.33
2019-02-06T21:06:23.519Z,36.20
2019-02-06T21:08:55.542Z,50.27
2019-02-06T21:11:25.070Z,40.77
2019-02-06T21:13:56.275Z,38.37
2019-02-06T21:16:26.852Z,36.77
2019-02-06T21:18:56.100Z,35.80
2019-02-06T21:21:25.380Z,48.60
2019-02-06T21:23:57.279Z,39.77
2019-02-06T21:26:29.303Z,39.03
2019-02-06T21:28:58.667Z,93.00
2019-02-06T21:31:27.922Z,45.60
2019-02-06T21:33:57.169Z,40.03
2019-02-06T21:36:26.631Z,38.37
2019-02-06T21:38:56.944Z,44.23
2019-02-06T21:41:28.941Z,38.47
2019-02-06T21:43:58.398Z,38.70
2019-02-06T21:46:27.615Z,50.00
2019-02-06T21:48:57.014Z,38.37
2019-02-06T21:51:26.468Z,39.20
2019-02-06T21:53:57.819Z,43.20
2019-02-06T21:56:27.061Z,55.47
2019-02-06T21:58:58.208Z,43.10
2019-02-06T22:01:29.128Z,55.50
2019-02-06T22:03:58.398Z,41.47
2019-02-06T22:06:27.691Z,42.63
2019-02-06T22:08:59.854Z,51.10
2019-02-06T22:11:29.222Z,35.00
2019-02-06T22:13:59.598Z,52.57
2019-02-06T22:16:28.983Z,35.23
2019-02-06T22:19:01.257Z,36.00
2019-02-06T22:21:32.411Z,31.00
2019-02-06T22:24:01.746Z,38.43
2019-02-06T22:26:31.056Z,37.60
2019-02-06T22:29:00.281Z,46.20
2019-02-06T22:31:29.999Z,36.57
2019-02-06T22:33:59.408Z,37.73
2019-02-06T22:36:28.600Z,32.57
2019-02-06T22:38:59.167Z,32.50
2019-02-06T22:41:31.286Z,46.30
2019-02-06T22:44:06.721Z,38.27
2019-02-06T22:46:35.528Z,32.47
2019-02-06T22:49:05.056Z,43.97
2019-02-06T22:51:37.602Z,42.47
2019-02-06T22:54:07.132Z,31.73
2019-02-06T22:56:36.564Z,37.10
2019-02-06T22:59:10.560Z,42.33
2019-02-06T23:01:47.311Z,44.47
2019-02-06T23:04:17.108Z,61.50
2019-02-06T23:06:46.420Z,35.27
2019-02-06T23:09:15.731Z,32.20
2019-02-06T23:11:45.266Z,39.00
2019-02-06T23:14:17.818Z,57.97
2019-02-06T23:16:47.336Z,34.50
2019-02-06T23:19:16.580Z,35.30
2019-02-06T23:21:48.978Z,53.73
2019-02-06T23:24:18.460Z,41.27
2019-02-06T23:26:50.482Z,49.57
2019-02-06T23:29:21.485Z,46.77
2019-02-06T23:31:53.817Z,30.10
2019-02-06T23:34:23.258Z,33.60
2019-02-06T23:36:52.516Z,49.27
2019-02-06T23:39:22.041Z,40.63
2019-02-06T23:41:51.461Z,50.23
2019-02-06T23:44:28.681Z,49.80
2019-02-06T23:46:55.954Z,41.57
2019-02-06T23:49:24.332Z,49.23
2019-02-06T23:51:53.577Z,36.03
2019-02-06T23:54:22.892Z,37.07
2019-02-06T23:56:55.278Z,51.97
2019-02-06T23:59:24.737Z,40.10
